createdAt,value
2024-03-29T00:00:59.347Z,97490.58
2024-03-29T00:04:04.529Z,97500.67
2024-03-29T00:07:10.854Z,97522.75
2024-03-29T00:10:14.664Z,97537.48
2024-03-29T00:13:19.841Z,97557.92
2024-03-29T00:16:26.727Z,97577.09
2024-03-29T00:19:31.926Z,97584.96
2024-03-29T00:22:37.587Z,97592.46
2024-03-29T00:25:42.781Z,97600.79
2024-03-29T00:28:48.185Z,97609.16
2024-03-29T00:31:53.358Z,97614.17
2024-03-29T00:34:59.278Z,97621.69
2024-03-29T00:38:05.094Z,97626.41
2024-03-29T00:41:10.468Z,97634.30
2024-03-29T00:44:16.020Z,97639.27
2024-03-29T00:47:21.202Z,97640.33
2024-03-29T00:50:26.613Z,97645.35
2024-03-29T00:53:31.851Z,97657.48
2024-03-29T00:56:37.036Z,97667.35
2024-03-29T00:59:44.345Z,97670.59
2024-03-29T01:02:49.572Z,97674.79
2024-03-29T01:05:54.975Z,97676.03
2024-03-29T01:09:00.163Z,97679.97
2024-03-29T01:12:05.972Z,97678.17
2024-03-29T01:15:11.969Z,97683.80
2024-03-29T01:18:17.174Z,97686.00
2024-03-29T01:21:22.353Z,97688.73
2024-03-29T01:24:27.559Z,97691.59
2024-03-29T01:27:32.696Z,97700.46
2024-03-29T01:30:37.886Z,97709.02
2024-03-29T01:33:43.287Z,97719.20
2024-03-29T01:36:48.424Z,97726.53
2024-03-29T01:39:53.875Z,97728.66
2024-03-29T01:42:59.596Z,97727.30
2024-03-29T01:46:07.283Z,97726.51
2024-03-29T01:49:13.571Z,97736.09
2024-03-29T01:52:21.635Z,97740.50
2024-03-29T01:55:27.689Z,97750.79
2024-03-29T01:58:33.938Z,97763.41
2024-03-29T02:01:38.664Z,97772.51
2024-03-29T02:04:44.827Z,97781.02
2024-03-29T02:07:51.852Z,97793.45
2024-03-29T02:10:59.120Z,97797.17
2024-03-29T02:14:07.110Z,97804.52
2024-03-29T02:17:12.353Z,97804.96
2024-03-29T02:20:33.276Z,97816.81
2024-03-29T02:23:47.679Z,97839.70
2024-03-29T02:26:53.221Z,97862.39
2024-03-29T02:29:58.452Z,97874.98
2024-03-29T02:33:03.860Z,97883.55
2024-03-29T02:36:10.045Z,97892.13
2024-03-29T02:39:13.834Z,97898.70
2024-03-29T02:42:19.022Z,97901.21
2024-03-29T02:45:24.167Z,97906.52
2024-03-29T02:48:29.401Z,97910.07
2024-03-29T02:51:34.649Z,97912.73
2024-03-29T02:54:39.842Z,97910.45
2024-03-29T02:57:45.019Z,97911.20
2024-03-29T03:00:50.225Z,97920.05
2024-03-29T03:03:55.405Z,97920.00
2024-03-29T03:07:20.676Z,97925.77
2024-03-29T03:10:43.638Z,97942.91
2024-03-29T03:13:48.812Z,97955.65
2024-03-29T03:16:54.946Z,97963.94
2024-03-29T03:20:00.494Z,97974.77
2024-03-29T03:23:05.886Z,97985.09
2024-03-29T03:26:11.179Z,97988.09
2024-03-29T03:29:16.324Z,97991.94
2024-03-29T03:32:21.543Z,97999.58
2024-03-29T03:35:26.913Z,98008.17
2024-03-29T03:38:33.953Z,98013.58
2024-03-29T03:41:39.547Z,98018.35
2024-03-29T03:44:44.727Z,98023.41
2024-03-29T03:47:50.134Z,98016.30
2024-03-29T03:50:55.276Z,98012.71
2024-03-29T03:54:00.415Z,98010.39
2024-03-29T03:57:06.416Z,98004.77
2024-03-29T04:00:16.591Z,98010.02
2024-03-29T04:03:23.114Z,98013.97
2024-03-29T04:06:28.350Z,98018.95
2024-03-29T04:09:33.536Z,98017.76
2024-03-29T04:12:39.106Z,98020.95
2024-03-29T04:15:44.323Z,98028.91
2024-03-29T04:18:49.524Z,98035.45
2024-03-29T04:21:55.790Z,98031.98
2024-03-29T04:24:59.737Z,98041.15
2024-03-29T04:28:05.461Z,98045.40
2024-03-29T04:31:10.647Z,98048.20
2024-03-29T04:34:15.886Z,98060.73
2024-03-29T04:37:21.291Z,98066.48
2024-03-29T04:40:26.473Z,98067.27
2024-03-29T04:43:32.181Z,98071.95
2024-03-29T04:46:37.369Z,98075.45
2024-03-29T04:49:42.569Z,98076.13
2024-03-29T04:52:47.764Z,98070.95
2024-03-29T04:55:58.523Z,98070.35
2024-03-29T04:59:03.838Z,98080.96
2024-03-29T05:02:09.172Z,98093.91
2024-03-29T05:05:15.000Z,98106.34
2024-03-29T05:08:22.310Z,98105.48
2024-03-29T05:11:27.493Z,98107.64
2024-03-29T05:14:32.736Z,98113.82
2024-03-29T05:17:38.520Z,98120.43
2024-03-29T05:20:48.248Z,98121.14
2024-03-29T05:23:54.264Z,98122.33
2024-03-29T05:26:59.468Z,98130.52
2024-03-29T05:30:05.210Z,98126.63
2024-03-29T05:33:10.402Z,98124.56
2024-03-29T05:36:15.800Z,98124.52
2024-03-29T05:39:20.993Z,98131.08
2024-03-29T05:42:26.336Z,98139.23
2024-03-29T05:45:33.072Z,98154.30
2024-03-29T05:48:40.213Z,98160.14
2024-03-29T05:51:45.445Z,98151.45
2024-03-29T05:54:51.002Z,98142.48
2024-03-29T05:57:56.169Z,98151.29
2024-03-29T06:01:01.387Z,98158.35
2024-03-29T06:04:14.717Z,98157.61
2024-03-29T06:07:19.895Z,98160.17
2024-03-29T06:10:25.472Z,98168.08
2024-03-29T06:13:51.632Z,98168.86
2024-03-29T06:17:14.546Z,98176.29
2024-03-29T06:20:19.768Z,98191.76
2024-03-29T06:23:25.079Z,98189.89
2024-03-29T06:26:30.262Z,98193.17
2024-03-29T06:29:35.665Z,98198.04
2024-03-29T06:32:40.908Z,98201.20
2024-03-29T06:35:54.665Z,98205.87
2024-03-29T06:38:59.893Z,98201.45
2024-03-29T06:42:08.057Z,98182.00
2024-03-29T06:45:13.693Z,98175.60
2024-03-29T06:48:18.898Z,98168.41
2024-03-29T06:51:24.126Z,98159.42
2024-03-29T06:54:29.322Z,98153.89
2024-03-29T06:57:36.875Z,98156.98
2024-03-29T07:00:42.059Z,98156.95
2024-03-29T07:03:47.301Z,98161.26
2024-03-29T07:06:52.959Z,98160.50
2024-03-29T07:09:58.517Z,98155.77
2024-03-29T07:13:03.743Z,98153.27
2024-03-29T07:16:09.888Z,98155.66
2024-03-29T07:19:17.066Z,98171.02
2024-03-29T07:22:31.750Z,98175.42
2024-03-29T07:25:42.639Z,98174.80
2024-03-29T07:28:47.884Z,98170.47
2024-03-29T07:31:53.301Z,98159.79
2024-03-29T07:34:59.415Z,98151.34
2024-03-29T07:38:04.645Z,98147.23
2024-03-29T07:41:10.887Z,98139.95
2024-03-29T07:44:16.294Z,98121.30
2024-03-29T07:47:23.215Z,98104.86
2024-03-29T07:50:28.425Z,98100.56
2024-03-29T07:53:33.670Z,98112.80
2024-03-29T07:56:38.863Z,98132.11
2024-03-29T07:59:44.258Z,98144.15
2024-03-29T08:02:49.447Z,98153.32
2024-03-29T08:06:01.607Z,98153.81
2024-03-29T08:09:07.235Z,98154.14
2024-03-29T08:12:12.766Z,98145.06
2024-03-29T08:15:19.293Z,98147.55
2024-03-29T08:18:24.520Z,98152.11
2024-03-29T08:21:30.889Z,98164.06
2024-03-29T08:24:36.069Z,98173.19
2024-03-29T08:27:41.273Z,98177.83
2024-03-29T08:30:46.763Z,98179.15
2024-03-29T08:34:01.327Z,98186.45
2024-03-29T08:37:08.449Z,98191.00
2024-03-29T08:40:15.058Z,98196.52
2024-03-29T08:43:20.227Z,98195.90
2024-03-29T08:46:25.656Z,98196.83
2024-03-29T08:49:30.876Z,98198.23
2024-03-29T08:52:36.136Z,98204.34
2024-03-29T08:55:41.871Z,98202.25
2024-03-29T08:58:48.037Z,98203.94
2024-03-29T09:01:54.224Z,98203.84
2024-03-29T09:04:59.442Z,98201.95
2024-03-29T09:08:05.002Z,98202.61
2024-03-29T09:11:11.875Z,98201.33
2024-03-29T09:14:17.832Z,98202.73
2024-03-29T09:17:25.597Z,98208.05
2024-03-29T09:20:30.830Z,98208.89
2024-03-29T09:23:36.021Z,98205.33
2024-03-29T09:26:44.060Z,98205.34
2024-03-29T09:29:52.451Z,98201.65
2024-03-29T09:32:57.656Z,98193.04
2024-03-29T09:36:04.017Z,98193.41
2024-03-29T09:39:09.764Z,98194.48
2024-03-29T09:42:19.131Z,98196.30
2024-03-29T09:45:25.586Z,98199.89
2024-03-29T09:48:37.515Z,98199.94
2024-03-29T09:51:43.742Z,98197.00
2024-03-29T09:54:49.027Z,98198.29
2024-03-29T09:57:54.488Z,98201.59
2024-03-29T10:01:00.126Z,98210.23
2024-03-29T10:04:07.943Z,98206.80
2024-03-29T10:07:16.199Z,98203.69
2024-03-29T10:10:21.599Z,98205.10
2024-03-29T10:13:27.286Z,98202.20
2024-03-29T10:16:35.355Z,98196.75
2024-03-29T10:19:40.540Z,98190.52
2024-03-29T10:22:47.068Z,98180.88
2024-03-29T10:25:52.254Z,98183.17
2024-03-29T10:28:58.029Z,98183.98
2024-03-29T10:32:04.231Z,98183.61
2024-03-29T10:35:11.149Z,98177.23
2024-03-29T10:38:16.374Z,98168.60
2024-03-29T10:41:22.515Z,98166.68
2024-03-29T10:44:28.989Z,98163.47
2024-03-29T10:47:36.034Z,98164.39
2024-03-29T10:50:43.373Z,98165.91
2024-03-29T10:53:52.591Z,98164.13
2024-03-29T10:57:08.727Z,98158.63
2024-03-29T11:00:21.522Z,98161.33
2024-03-29T11:03:34.854Z,98162.33
2024-03-29T11:06:41.938Z,98155.69
2024-03-29T11:09:52.417Z,98148.20
2024-03-29T11:13:20.645Z,98141.63
2024-03-29T11:16:26.614Z,98136.30
2024-03-29T11:19:33.381Z,98124.40
2024-03-29T11:22:39.245Z,98114.44
2024-03-29T11:25:44.266Z,98113.95
2024-03-29T11:28:53.430Z,98105.38
2024-03-29T11:32:01.667Z,98091.45
2024-03-29T11:35:15.817Z,98078.97
2024-03-29T11:38:21.894Z,98079.02
2024-03-29T11:41:30.513Z,98075.14
2024-03-29T11:44:36.916Z,98074.40
2024-03-29T11:47:43.443Z,98069.05
2024-03-29T11:50:49.137Z,98066.33
2024-03-29T11:53:56.020Z,98072.61
2024-03-29T11:57:01.951Z,98071.94
2024-03-29T12:00:06.526Z,98064.82
2024-03-29T12:03:11.912Z,98048.05
2024-03-29T12:06:19.766Z,98046.87
2024-03-29T12:09:24.964Z,98048.14
2024-03-29T12:12:32.397Z,98050.08
2024-03-29T12:15:38.007Z,98042.73
2024-03-29T12:18:43.348Z,98032.70
2024-03-29T12:21:48.796Z,98017.52
2024-03-29T12:24:53.975Z,98005.66
2024-03-29T12:28:00.061Z,98005.41
2024-03-29T12:31:05.444Z,98007.73
2024-03-29T12:34:10.630Z,98007.31
2024-03-29T12:37:15.828Z,98006.79
2024-03-29T12:40:23.424Z,98005.07
2024-03-29T12:43:30.158Z,98003.90
2024-03-29T12:46:35.138Z,98001.39
2024-03-29T12:49:45.370Z,97999.02
2024-03-29T12:52:51.358Z,98006.02
2024-03-29T12:55:56.544Z,98004.17
2024-03-29T12:59:01.781Z,98002.81
2024-03-29T13:02:07.189Z,97999.98
2024-03-29T13:05:12.840Z,97991.60
2024-03-29T13:08:18.621Z,97991.59
2024-03-29T13:11:22.402Z,97983.36
2024-03-29T13:14:27.994Z,97976.34
2024-03-29T13:17:33.506Z,97972.73
2024-03-29T13:20:42.125Z,97979.70
2024-03-29T13:23:47.309Z,97979.65
2024-03-29T13:26:52.611Z,97974.55
2024-03-29T13:29:57.794Z,97972.74
2024-03-29T13:33:03.104Z,97971.44
2024-03-29T13:36:09.777Z,97980.02
2024-03-29T13:39:16.346Z,97987.29
2024-03-29T13:42:22.307Z,97991.73
2024-03-29T13:45:28.946Z,97986.27
2024-03-29T13:48:34.169Z,97991.99
2024-03-29T13:51:39.405Z,97993.32
2024-03-29T13:54:48.150Z,97991.73
2024-03-29T13:57:53.477Z,97994.52
2024-03-29T14:01:00.988Z,97990.77
2024-03-29T14:04:06.391Z,97985.38
2024-03-29T14:07:14.529Z,97986.93
2024-03-29T14:10:20.411Z,97990.71
2024-03-29T14:13:24.781Z,97989.05
2024-03-29T14:16:29.950Z,97994.44
2024-03-29T14:19:35.768Z,97993.70
2024-03-29T14:22:41.623Z,97995.38
2024-03-29T14:25:47.276Z,97997.90
2024-03-29T14:28:52.749Z,97998.91
2024-03-29T14:31:58.069Z,97997.71
2024-03-29T14:35:03.419Z,98000.23
2024-03-29T14:38:09.164Z,97992.88
2024-03-29T14:41:14.348Z,97999.55
2024-03-29T14:44:21.694Z,98000.63
2024-03-29T14:47:26.864Z,98000.39
2024-03-29T14:50:32.104Z,97997.45
2024-03-29T14:53:37.327Z,97996.02
2024-03-29T14:56:42.669Z,97992.59
2024-03-29T14:59:47.856Z,97994.56
2024-03-29T15:02:53.884Z,97998.94
2024-03-29T15:05:59.423Z,98007.26
2024-03-29T15:09:05.356Z,98008.96
2024-03-29T15:12:11.049Z,98008.50
2024-03-29T15:15:17.323Z,98015.93
2024-03-29T15:18:24.663Z,98020.89
2024-03-29T15:21:32.598Z,98028.88
2024-03-29T15:24:37.781Z,98029.95
2024-03-29T15:28:00.699Z,98031.14
2024-03-29T15:31:13.049Z,98019.86
2024-03-29T15:34:18.454Z,98022.76
2024-03-29T15:37:26.301Z,98021.92
2024-03-29T15:40:31.503Z,98014.98
2024-03-29T15:43:37.503Z,98018.23
2024-03-29T15:46:41.885Z,98019.59
2024-03-29T15:49:47.142Z,98018.37
2024-03-29T15:52:52.385Z,98018.45
2024-03-29T15:55:59.456Z,98016.45
2024-03-29T15:59:05.106Z,98015.15
2024-03-29T16:02:10.531Z,98009.41
2024-03-29T16:05:16.108Z,98002.59
2024-03-29T16:08:21.306Z,97996.66
2024-03-29T16:11:35.907Z,98001.92
2024-03-29T16:14:41.151Z,98002.14
2024-03-29T16:17:46.474Z,98002.81
2024-03-29T16:20:52.149Z,98004.08
2024-03-29T16:23:57.484Z,98009.91
2024-03-29T16:27:02.674Z,98006.21
2024-03-29T16:30:10.059Z,98004.45
2024-03-29T16:33:15.475Z,98000.24
2024-03-29T16:36:20.757Z,97997.09
2024-03-29T16:39:26.129Z,97999.01
2024-03-29T16:42:31.345Z,97994.55
2024-03-29T16:45:37.475Z,97993.89
2024-03-29T16:48:43.230Z,97999.09
2024-03-29T16:51:48.509Z,98001.50
2024-03-29T16:54:53.712Z,98002.16
2024-03-29T16:57:59.060Z,98006.69
2024-03-29T17:01:04.400Z,98011.06
2024-03-29T17:04:09.744Z,98016.59
2024-03-29T17:07:15.231Z,98015.83
2024-03-29T17:10:20.547Z,98017.83
2024-03-29T17:13:25.884Z,98017.41
2024-03-29T17:16:31.070Z,98015.79
2024-03-29T17:19:37.456Z,98021.95
2024-03-29T17:22:42.644Z,98029.02
2024-03-29T17:25:47.826Z,98030.58
2024-03-29T17:28:53.026Z,98037.31
2024-03-29T17:32:09.218Z,98034.14
2024-03-29T17:35:17.232Z,98034.29
2024-03-29T17:38:22.415Z,98035.42
2024-03-29T17:41:28.129Z,98034.03
2024-03-29T17:44:33.423Z,98030.39
2024-03-29T17:47:38.687Z,98021.77
2024-03-29T17:50:43.998Z,98022.60
2024-03-29T17:53:49.204Z,98025.24
2024-03-29T17:56:54.382Z,98019.12
2024-03-29T18:00:00.708Z,98017.77
2024-03-29T18:03:06.838Z,98017.28
2024-03-29T18:06:12.585Z,98017.02
2024-03-29T18:09:17.807Z,98025.30
2024-03-29T18:12:23.018Z,98031.20
2024-03-29T18:15:28.254Z,98029.06
2024-03-29T18:18:33.845Z,98024.76
2024-03-29T18:21:40.993Z,98020.05
2024-03-29T18:24:46.342Z,98016.41
2024-03-29T18:27:51.680Z,98018.73
2024-03-29T18:31:00.417Z,98025.07
2024-03-29T18:34:05.651Z,98024.48
2024-03-29T18:37:10.834Z,98028.14
2024-03-29T18:40:16.800Z,98021.91
2024-03-29T18:43:22.270Z,98023.56
2024-03-29T18:46:27.498Z,98027.20
2024-03-29T18:49:32.688Z,98029.24
2024-03-29T18:52:37.929Z,98029.94
2024-03-29T18:55:43.283Z,98031.63
2024-03-29T18:58:48.627Z,98033.02
2024-03-29T19:01:53.900Z,98031.13
2024-03-29T19:04:59.104Z,98031.54
2024-03-29T19:08:04.554Z,98029.25
2024-03-29T19:11:09.740Z,98031.10
2024-03-29T19:14:15.037Z,98025.98
2024-03-29T19:17:20.215Z,98026.76
2024-03-29T19:20:25.423Z,98020.33
2024-03-29T19:23:32.302Z,98017.82
2024-03-29T19:26:37.522Z,98017.61
2024-03-29T19:29:42.693Z,98023.67
2024-03-29T19:32:59.051Z,98020.97
2024-03-29T19:36:04.435Z,98018.13
2024-03-29T19:39:11.584Z,98019.13
2024-03-29T19:42:16.813Z,98021.10
2024-03-29T19:45:22.109Z,98024.12
2024-03-29T19:48:27.291Z,98022.16
2024-03-29T19:51:32.596Z,98022.29
2024-03-29T19:54:37.792Z,98024.05
2024-03-29T19:57:43.018Z,98024.55
2024-03-29T20:00:48.222Z,98021.25
2024-03-29T20:03:53.669Z,98021.30
2024-03-29T20:06:58.853Z,98025.29
2024-03-29T20:10:04.672Z,98025.94
2024-03-29T20:13:10.493Z,98024.64
2024-03-29T20:16:15.872Z,98036.44
2024-03-29T20:19:22.751Z,98040.71
2024-03-29T20:22:27.933Z,98040.67
2024-03-29T20:25:33.549Z,98044.91
2024-03-29T20:28:38.725Z,98039.63
2024-03-29T20:31:43.898Z,98042.98
2024-03-29T20:34:49.069Z,98051.77
2024-03-29T20:37:56.630Z,98050.67
2024-03-29T20:41:01.809Z,98054.19
2024-03-29T20:44:07.415Z,98056.09
2024-03-29T20:47:12.822Z,98058.53
2024-03-29T20:50:18.157Z,98052.92
2024-03-29T20:53:23.498Z,98045.10
2024-03-29T20:56:28.736Z,98043.38
2024-03-29T20:59:35.414Z,98036.81
2024-03-29T21:02:58.192Z,98037.60
2024-03-29T21:06:03.349Z,98039.02
2024-03-29T21:09:08.654Z,98037.11
2024-03-29T21:12:14.120Z,98033.18
2024-03-29T21:15:19.552Z,98025.07
2024-03-29T21:18:24.895Z,98028.96
2024-03-29T21:21:32.705Z,98026.92
2024-03-29T21:24:38.199Z,98026.03
2024-03-29T21:27:44.701Z,98018.53
2024-03-29T21:30:51.804Z,98024.95
2024-03-29T21:33:57.022Z,98027.29
2024-03-29T21:37:02.236Z,98028.27
2024-03-29T21:40:10.895Z,98030.55
2024-03-29T21:43:17.896Z,98023.83
2024-03-29T21:46:23.082Z,98023.89
2024-03-29T21:49:28.281Z,98027.11
2024-03-29T21:52:33.774Z,98027.89
2024-03-29T21:55:38.971Z,98030.00
2024-03-29T21:58:49.245Z,98028.86
2024-03-29T22:02:00.309Z,98027.05
2024-03-29T22:05:07.139Z,98026.52
2024-03-29T22:08:12.337Z,98026.14
2024-03-29T22:11:17.692Z,98020.71
2024-03-29T22:14:22.923Z,98020.92
2024-03-29T22:17:28.128Z,98019.77
2024-03-29T22:20:33.590Z,98017.36
2024-03-29T22:23:38.853Z,98020.25
2024-03-29T22:26:44.069Z,98025.27
2024-03-29T22:29:49.914Z,98023.40
2024-03-29T22:32:56.631Z,98024.10
2024-03-29T22:36:02.001Z,98022.74
2024-03-29T22:39:08.346Z,98024.14
2024-03-29T22:42:13.555Z,98023.70
2024-03-29T22:45:19.262Z,98015.23
2024-03-29T22:48:24.597Z,98011.84
2024-03-29T22:51:30.110Z,98008.39
2024-03-29T22:54:35.574Z,98011.62
2024-03-29T22:57:40.726Z,98010.22
2024-03-29T23:00:48.177Z,98007.11
2024-03-29T23:03:53.470Z,98010.90
2024-03-29T23:06:58.645Z,98009.64
2024-03-29T23:10:04.057Z,98007.96
2024-03-29T23:13:09.232Z,98001.61
2024-03-29T23:16:14.435Z,98006.84
2024-03-29T23:19:20.084Z,98004.36
2024-03-29T23:22:25.431Z,98008.98
2024-03-29T23:25:30.795Z,98014.13
2024-03-29T23:28:38.078Z,98012.17
2024-03-29T23:31:43.209Z,98011.19
2024-03-29T23:34:48.655Z,98010.08
2024-03-29T23:37:54.614Z,98004.40
2024-03-29T23:41:02.387Z,98000.70
2024-03-29T23:44:08.094Z,98002.16
2024-03-29T23:47:13.414Z,97999.04
2024-03-29T23:50:18.788Z,97998.08
2024-03-29T23:53:42.586Z,97998.59
2024-03-29T23:56:47.786Z,97996.61
2024-03-29T23:59:55.837Z,97990.58
